Time;durP1;ratioP1;P1;durP2;ratioP2;P2;SDS_P1;SDS_P2;PMS_P1;PMS_P2;Temp;Humidity;BMP_temperature;BMP_pressure;BME280_temperature;BME280_humidity;BME280_pressure;Samples;Min_cycle;Max_cycle;Signal;HPM_P1;HPM_P2
2021/09/10 00:01:35;;;;;;;14.43;10.83;;;;;;;;;;5050395;28;20478;-70
2021/09/10 00:04:07;;;;;;;13.97;12.07;;;;;;;;;;5036956;28;20989;-69
2021/09/10 00:06:49;;;;;;;16.80;10.63;;;;;;;;;;5054550;28;20547;-69
2021/09/10 00:09:17;;;;;;;12.87;11.10;;;;;;;;;;5056999;28;20549;-71
2021/09/10 00:11:45;;;;;;;13.00;11.17;;;;;;;;;;5056310;28;20531;-71
2021/09/10 00:14:15;;;;;;;13.63;11.77;;;;;;;;;;5056970;28;20862;-70
2021/09/10 00:16:42;;;;;;;11.33;10.13;;;;;;;;;;5051370;28;20502;-69
2021/09/10 00:19:10;;;;;;;12.03;9.77;;;;;;;;;;5043706;28;20450;-69
2021/09/10 00:21:38;;;;;;;13.43;11.07;;;;;;;;;;5056167;28;20596;-71
2021/09/10 00:24:06;;;;;;;12.43;10.30;;;;;;;;;;5039893;28;20516;-71
2021/09/10 00:26:36;;;;;;;13.20;9.73;;;;;;;;;;5036239;28;20969;-71
2021/09/10 00:29:03;;;;;;;13.93;11.03;;;;;;;;;;5036223;28;20878;-69
2021/09/10 00:31:41;;;;;;;13.03;11.10;;;;;;;;;;5050342;28;20575;-70
2021/09/10 00:34:14;;;;;;;13.63;9.80;;;;;;;;;;5055575;28;20580;-70
2021/09/10 00:36:51;;;;;;;17.10;10.20;;;;;;;;;;5054260;28;20456;-70
2021/09/10 00:39:21;;;;;;;12.43;9.93;;;;;;;;;;5055931;28;20461;-69
2021/09/10 00:41:55;;;;;;;13.27;10.97;;;;;;;;;;5056020;28;20901;-70
2021/09/10 00:44:26;;;;;;;10.83;9.73;;;;;;;;;;5059056;28;20453;-69
2021/09/10 00:46:59;;;;;;;12.00;10.23;;;;;;;;;;5059804;28;20467;-70
2021/09/10 00:49:32;;;;;;;11.83;9.90;;;;;;;;;;5059049;28;20461;-71
2021/09/10 00:52:04;;;;;;;11.13;9.87;;;;;;;;;;5059960;28;20884;-69
2021/09/10 00:54:38;;;;;;;13.20;11.57;;;;;;;;;;5058538;28;20816;-70
2021/09/10 00:57:06;;;;;;;16.17;11.30;;;;;;;;;;5059976;28;20732;-70
2021/09/10 00:59:34;;;;;;;15.90;10.93;;;;;;;;;;5050237;28;20466;-71
2021/09/10 01:02:06;;;;;;;14.10;9.70;;;;;;;;;;5039707;28;20522;-71
2021/09/10 01:04:34;;;;;;;14.43;11.30;;;;;;;;;;5046613;28;20469;-70
2021/09/10 01:07:03;;;;;;;12.37;9.87;;;;;;;;;;5059320;28;20729;-70
2021/09/10 01:09:32;;;;;;;16.00;9.97;;;;;;;;;;5059396;28;20904;-70
2021/09/10 01:11:59;;;;;;;12.90;10.37;;;;;;;;;;5059302;28;20821;-70
2021/09/10 01:14:28;;;;;;;15.60;11.63;;;;;;;;;;5059416;28;20461;-70
2021/09/10 01:16:56;;;;;;;14.63;10.90;;;;;;;;;;5059150;28;20723;-70
2021/09/10 01:19:27;;;;;;;12.40;10.70;;;;;;;;;;5058321;28;20465;-70
2021/09/10 01:21:56;;;;;;;19.70;10.77;;;;;;;;;;5059210;28;20598;-70
2021/09/10 01:24:29;;;;;;;11.80;10.40;;;;;;;;;;5059046;28;20466;-70
2021/09/10 01:26:57;;;;;;;12.47;10.20;;;;;;;;;;5057947;28;20469;-70
2021/09/10 01:29:25;;;;;;;14.00;10.80;;;;;;;;;;5058182;28;20570;-70
2021/09/10 01:31:52;;;;;;;12.53;10.30;;;;;;;;;;5058554;28;20884;-70
2021/09/10 01:34:25;;;;;;;12.47;9.97;;;;;;;;;;5056767;28;20481;-70
2021/09/10 01:36:53;;;;;;;10.53;9.07;;;;;;;;;;5038913;28;20458;-70
2021/09/10 01:39:21;;;;;;;11.03;9.90;;;;;;;;;;5039098;28;20468;-69
2021/09/10 01:41:50;;;;;;;14.03;10.43;;;;;;;;;;5038638;28;20809;-69
2021/09/10 01:44:18;;;;;;;13.20;10.40;;;;;;;;;;5038146;28;20738;-70
2021/09/10 01:46:45;;;;;;;13.07;9.57;;;;;;;;;;5038337;28;20513;-69
2021/09/10 01:49:13;;;;;;;11.53;10.13;;;;;;;;;;5038428;28;20489;-69
2021/09/10 01:51:41;;;;;;;14.53;10.47;;;;;;;;;;5038879;28;20819;-69
2021/09/10 01:54:09;;;;;;;14.10;11.40;;;;;;;;;;5038731;28;20893;-69
2021/09/10 01:56:37;;;;;;;12.77;10.33;;;;;;;;;;5038039;28;20525;-69
2021/09/10 01:59:06;;;;;;;13.37;10.60;;;;;;;;;;5038611;28;20458;-70
2021/09/10 02:01:34;;;;;;;11.60;10.17;;;;;;;;;;5038356;28;20497;-69
2021/09/10 02:04:02;;;;;;;13.43;10.00;;;;;;;;;;5038758;28;20488;-69
2021/09/10 02:06:30;;;;;;;13.57;11.33;;;;;;;;;;5038411;28;20589;-69
2021/09/10 02:08:57;;;;;;;14.00;11.07;;;;;;;;;;5038137;28;20534;-69
2021/09/10 02:11:25;;;;;;;14.57;10.40;;;;;;;;;;5038383;28;20486;-69
2021/09/10 02:13:53;;;;;;;14.00;11.27;;;;;;;;;;5038500;28;20788;-69
2021/09/10 02:16:22;;;;;;;14.93;11.00;;;;;;;;;;5037646;28;20517;-69
2021/09/10 02:18:50;;;;;;;13.97;12.03;;;;;;;;;;5037980;28;20466;-69
2021/09/10 02:21:18;;;;;;;11.43;10.23;;;;;;;;;;5037694;28;20826;-69
2021/09/10 02:23:46;;;;;;;11.20;10.10;;;;;;;;;;5038309;28;20469;-70
2021/09/10 02:26:13;;;;;;;10.93;9.83;;;;;;;;;;5038311;28;20560;-69
2021/09/10 02:28:41;;;;;;;12.70;9.97;;;;;;;;;;5037719;28;20462;-69
2021/09/10 02:31:09;;;;;;;12.47;10.40;;;;;;;;;;5037611;28;20885;-69
2021/09/10 02:33:38;;;;;;;11.73;10.27;;;;;;;;;;5037769;28;20466;-69
2021/09/10 02:36:06;;;;;;;15.80;11.00;;;;;;;;;;5037264;28;20451;-69
2021/09/10 02:38:34;;;;;;;14.80;9.93;;;;;;;;;;5037515;28;20474;-69
2021/09/10 02:41:01;;;;;;;16.30;10.33;;;;;;;;;;5037964;28;20470;-69
2021/09/10 02:43:29;;;;;;;13.40;10.73;;;;;;;;;;5037482;28;20535;-69
2021/09/10 02:45:57;;;;;;;14.67;11.27;;;;;;;;;;5037489;28;20458;-69
2021/09/10 02:48:24;;;;;;;12.70;11.40;;;;;;;;;;5037699;28;20473;-69
2021/09/10 02:50:54;;;;;;;12.70;10.67;;;;;;;;;;5037465;28;20458;-70
2021/09/10 02:53:21;;;;;;;13.10;10.70;;;;;;;;;;5037125;28;20466;-70
2021/09/10 02:55:49;;;;;;;13.47;11.33;;;;;;;;;;5037266;28;20549;-70
2021/09/10 02:58:16;;;;;;;13.70;11.63;;;;;;;;;;5037180;28;20735;-70
2021/09/10 03:00:44;;;;;;;11.83;10.17;;;;;;;;;;5036930;28;20446;-70
2021/09/10 03:03:15;;;;;;;11.73;10.50;;;;;;;;;;5037323;28;20704;-70
2021/09/10 03:05:43;;;;;;;11.53;10.33;;;;;;;;;;5037407;28;20521;-70
2021/09/10 03:08:12;;;;;;;14.13;11.23;;;;;;;;;;5036225;28;21027;-70
2021/09/10 03:10:39;;;;;;;11.97;10.07;;;;;;;;;;5036606;28;20528;-70
2021/09/10 03:13:07;;;;;;;14.03;10.87;;;;;;;;;;5036444;28;20466;-70
2021/09/10 03:15:35;;;;;;;12.97;10.50;;;;;;;;;;5036271;28;20455;-70
2021/09/10 03:18:03;;;;;;;13.87;11.03;;;;;;;;;;5037737;28;20855;-70
2021/09/10 03:20:31;;;;;;;12.27;10.90;;;;;;;;;;5037322;28;20485;-70
2021/09/10 03:22:58;;;;;;;15.33;11.63;;;;;;;;;;5038079;28;20505;-70
2021/09/10 03:25:28;;;;;;;14.27;11.60;;;;;;;;;;5037587;28;20454;-70
2021/09/10 03:27:55;;;;;;;14.40;11.33;;;;;;;;;;5053305;28;20453;-70
2021/09/10 03:30:23;;;;;;;15.30;12.40;;;;;;;;;;5058335;28;20691;-70
2021/09/10 03:32:51;;;;;;;11.60;10.40;;;;;;;;;;5049269;28;20943;-70
2021/09/10 03:35:18;;;;;;;14.10;11.57;;;;;;;;;;5052673;28;20856;-70
2021/09/10 03:37:46;;;;;;;17.73;12.83;;;;;;;;;;5036844;28;20465;-70
2021/09/10 03:40:14;;;;;;;17.03;11.63;;;;;;;;;;5036585;28;20866;-70
2021/09/10 03:42:43;;;;;;;10.73;9.53;;;;;;;;;;5035945;28;20490;-71
2021/09/10 03:45:12;;;;;;;15.00;10.90;;;;;;;;;;5036038;28;20446;-70
2021/09/10 03:47:39;;;;;;;13.83;10.60;;;;;;;;;;5036866;28;20459;-70
2021/09/10 03:50:07;;;;;;;15.10;10.77;;;;;;;;;;5036578;28;20453;-70
2021/09/10 03:52:35;;;;;;;13.27;11.53;;;;;;;;;;5036633;28;20481;-71
2021/09/10 03:55:02;;;;;;;14.30;11.20;;;;;;;;;;5036918;28;20458;-70
2021/09/10 03:57:30;;;;;;;12.07;10.30;;;;;;;;;;5036507;28;20454;-70
2021/09/10 03:59:59;;;;;;;13.00;11.23;;;;;;;;;;5035555;28;20731;-70
2021/09/10 04:02:27;;;;;;;13.27;11.87;;;;;;;;;;5035724;28;20554;-70
2021/09/10 04:04:55;;;;;;;14.93;12.10;;;;;;;;;;5036288;28;20493;-70
2021/09/10 04:07:22;;;;;;;14.67;11.80;;;;;;;;;;5036819;28;20549;-70
2021/09/10 04:09:50;;;;;;;14.87;11.40;;;;;;;;;;5036303;28;20572;-70
2021/09/10 04:12:19;;;;;;;15.03;10.27;;;;;;;;;;5053717;28;20462;-70
2021/09/10 04:14:47;;;;;;;13.07;11.10;;;;;;;;;;5042794;28;20553;-70
2021/09/10 04:17:16;;;;;;;13.00;10.00;;;;;;;;;;5036291;28;20477;-70
2021/09/10 04:19:43;;;;;;;18.20;12.80;;;;;;;;;;5040292;28;20466;-70
2021/09/10 04:22:11;;;;;;;25.83;15.53;;;;;;;;;;5040361;28;20733;-70
2021/09/10 04:24:39;;;;;;;14.20;11.20;;;;;;;;;;5054581;28;20464;-70
2021/09/10 04:27:07;;;;;;;16.70;12.43;;;;;;;;;;5041536;28;20882;-70
2021/09/10 04:29:34;;;;;;;13.67;12.23;;;;;;;;;;5039953;28;20497;-70
2021/09/10 04:32:02;;;;;;;13.20;11.57;;;;;;;;;;5039657;28;20465;-71
2021/09/10 04:34:31;;;;;;;15.70;11.40;;;;;;;;;;5039221;28;20462;-71
2021/09/10 04:36:59;;;;;;;14.60;12.30;;;;;;;;;;5039783;28;20460;-71
2021/09/10 04:39:26;;;;;;;15.30;13.17;;;;;;;;;;5046395;28;20477;-71
2021/09/10 04:41:54;;;;;;;18.37;11.33;;;;;;;;;;5059045;28;20481;-71
2021/09/10 04:44:22;;;;;;;13.70;11.53;;;;;;;;;;5051308;28;20462;-71
2021/09/10 04:46:56;;;;;;;13.47;12.07;;;;;;;;;;5039117;28;20866;-71
2021/09/10 04:49:23;;;;;;;17.83;12.93;;;;;;;;;;5038556;28;20458;-70
2021/09/10 04:51:53;;;;;;;14.50;11.60;;;;;;;;;;5039484;28;21076;-71
2021/09/10 04:54:21;;;;;;;13.40;11.67;;;;;;;;;;5039142;28;20473;-71
2021/09/10 04:56:49;;;;;;;21.10;13.07;;;;;;;;;;5041051;28;20826;-71
2021/09/10 04:59:16;;;;;;;14.70;12.73;;;;;;;;;;5039427;28;20869;-71
2021/09/10 05:01:47;;;;;;;18.90;13.80;;;;;;;;;;5040144;28;20461;-70
2021/09/10 05:04:14;;;;;;;12.17;10.90;;;;;;;;;;5039687;28;20476;-71
2021/09/10 05:06:42;;;;;;;15.57;12.70;;;;;;;;;;5044430;28;20458;-71
2021/09/10 05:09:12;;;;;;;14.93;11.93;;;;;;;;;;5040914;28;20462;-70
2021/09/10 05:11:44;;;;;;;18.30;13.97;;;;;;;;;;5040994;28;20445;-70
2021/09/10 05:14:22;;;;;;;17.53;13.33;;;;;;;;;;5037434;28;20882;-70
2021/09/10 05:16:53;;;;;;;18.93;12.47;;;;;;;;;;5051250;28;20890;-69
2021/09/10 05:19:21;;;;;;;15.50;13.30;;;;;;;;;;5053360;28;20457;-72
2021/09/10 05:21:49;;;;;;;14.17;12.50;;;;;;;;;;5056915;28;20524;-71
2021/09/10 05:24:20;;;;;;;19.90;12.63;;;;;;;;;;5055231;28;20476;-71
2021/09/10 05:26:48;;;;;;;18.80;13.20;;;;;;;;;;5056320;28;20464;-71
2021/09/10 05:29:18;;;;;;;20.70;12.97;;;;;;;;;;5054423;28;20473;-71
2021/09/10 05:31:46;;;;;;;14.67;12.80;;;;;;;;;;5054802;28;20492;-69
2021/09/10 05:34:14;;;;;;;17.80;12.80;;;;;;;;;;5036900;28;20478;-71
2021/09/10 05:36:42;;;;;;;14.57;11.93;;;;;;;;;;5049395;28;20935;-69
2021/09/10 05:39:09;;;;;;;14.87;12.70;;;;;;;;;;5055309;28;20573;-70
2021/09/10 05:41:39;;;;;;;19.47;12.63;;;;;;;;;;5055626;28;20461;-70
2021/09/10 05:44:06;;;;;;;14.77;12.80;;;;;;;;;;5041669;28;20597;-71
2021/09/10 05:46:35;;;;;;;18.27;13.27;;;;;;;;;;5034167;28;20447;-71
2021/09/10 05:49:05;;;;;;;17.60;12.70;;;;;;;;;;5046858;28;20458;-70
2021/09/10 05:51:36;;;;;;;22.13;13.70;;;;;;;;;;5055673;28;20461;-71
2021/09/10 05:54:05;;;;;;;16.33;12.83;;;;;;;;;;5055653;28;21018;-71
2021/09/10 05:56:32;;;;;;;17.37;14.50;;;;;;;;;;5055008;28;20492;-70
2021/09/10 05:59:02;;;;;;;19.67;15.77;;;;;;;;;;5056761;28;20454;-71
2021/09/10 06:01:32;;;;;;;23.87;14.87;;;;;;;;;;5056823;28;20457;-71
2021/09/10 06:04:04;;;;;;;20.13;15.10;;;;;;;;;;5051440;28;20494;-71
2021/09/10 06:06:32;;;;;;;19.87;14.70;;;;;;;;;;5046047;28;20957;-70
2021/09/10 06:08:59;;;;;;;20.40;14.67;;;;;;;;;;5052697;28;20858;-71
2021/09/10 06:11:27;;;;;;;23.73;15.70;;;;;;;;;;5043642;28;20458;-71
2021/09/10 06:13:56;;;;;;;19.33;16.67;;;;;;;;;;5056235;28;20551;-71
2021/09/10 06:16:25;;;;;;;25.13;16.93;;;;;;;;;;5056839;28;20461;-71
2021/09/10 06:18:53;;;;;;;23.47;18.57;;;;;;;;;;5046175;28;20447;-71
2021/09/10 06:21:20;;;;;;;23.37;14.87;;;;;;;;;;5055166;28;20461;-71
2021/09/10 06:23:48;;;;;;;21.03;15.70;;;;;;;;;;5053846;28;20746;-71
2021/09/10 06:26:35;;;;;;;27.00;17.70;;;;;;;;;;5047256;28;20461;-71
2021/09/10 06:29:04;;;;;;;21.20;15.20;;;;;;;;;;5035710;28;20516;-72
2021/09/10 06:31:34;;;;;;;20.87;16.00;;;;;;;;;;5036025;28;21209;-71
2021/09/10 06:34:01;;;;;;;20.73;17.70;;;;;;;;;;5037960;28;20524;-70
2021/09/10 06:36:30;;;;;;;17.87;13.50;;;;;;;;;;5048303;28;20908;-72
2021/09/10 06:38:58;;;;;;;17.97;13.20;;;;;;;;;;5039204;28;20461;-72
2021/09/10 06:41:26;;;;;;;19.33;14.03;;;;;;;;;;5045751;28;20465;-71
2021/09/10 06:43:53;;;;;;;18.80;15.53;;;;;;;;;;5055276;28;21103;-71
2021/09/10 06:46:21;;;;;;;19.87;14.50;;;;;;;;;;5053685;28;20453;-71
2021/09/10 06:48:51;;;;;;;20.97;15.87;;;;;;;;;;5038567;28;20561;-71
2021/09/10 06:51:19;;;;;;;19.60;16.20;;;;;;;;;;5036838;28;20490;-70
2021/09/10 06:53:50;;;;;;;18.60;13.90;;;;;;;;;;5036854;28;20456;-71
2021/09/10 06:56:18;;;;;;;19.73;15.03;;;;;;;;;;5043610;28;21070;-70
2021/09/10 06:58:46;;;;;;;19.80;15.17;;;;;;;;;;5075377;28;20484;-70
2021/09/10 07:01:14;;;;;;;18.83;14.83;;;;;;;;;;5076199;28;20530;-70
2021/09/10 07:03:49;;;;;;;23.07;17.60;;;;;;;;;;5059313;28;20540;-70
2021/09/10 07:06:35;;;;;;;21.03;16.73;;;;;;;;;;5045832;28;20458;-70
2021/09/10 07:09:08;;;;;;;23.87;17.53;;;;;;;;;;5033270;28;20881;-71
2021/09/10 07:11:38;;;;;;;29.03;18.60;;;;;;;;;;5041559;28;20477;-71
2021/09/10 07:14:11;;;;;;;19.50;16.20;;;;;;;;;;5046246;28;20473;-72
2021/09/10 07:16:42;;;;;;;20.87;15.43;;;;;;;;;;5040918;28;20461;-71
2021/09/10 07:19:15;;;;;;;19.97;16.07;;;;;;;;;;5039910;28;21081;-70
2021/09/10 07:21:54;;;;;;;22.33;16.73;;;;;;;;;;5040489;28;20960;-72
2021/09/10 07:24:24;;;;;;;20.87;16.30;;;;;;;;;;5038404;28;20579;-72
2021/09/10 07:26:59;;;;;;;17.73;13.60;;;;;;;;;;5043797;28;21159;-72
2021/09/10 07:29:27;;;;;;;19.90;15.07;;;;;;;;;;5021224;28;20539;-71
2021/09/10 07:32:00;;;;;;;18.37;14.40;;;;;;;;;;5040259;28;20473;-71
2021/09/10 07:34:29;;;;;;;17.73;13.90;;;;;;;;;;5039157;28;20454;-71
2021/09/10 07:37:01;;;;;;;24.50;19.40;;;;;;;;;;5046909;28;20998;-71
2021/09/10 07:39:29;;;;;;;21.50;15.50;;;;;;;;;;5050618;28;20508;-71
2021/09/10 07:41:57;;;;;;;15.97;12.80;;;;;;;;;;5040178;28;20454;-70
2021/09/10 07:44:24;;;;;;;17.93;13.50;;;;;;;;;;5052866;28;20485;-69
2021/09/10 07:46:53;;;;;;;18.40;13.60;;;;;;;;;;5048342;28;20476;-71
2021/09/10 07:49:22;;;;;;;19.50;15.30;;;;;;;;;;5053425;28;20764;-71
2021/09/10 07:51:51;;;;;;;18.97;14.63;;;;;;;;;;5052352;28;20457;-71
2021/09/10 07:54:33;;;;;;;22.00;16.43;;;;;;;;;;5051988;28;20560;-71
2021/09/10 07:57:12;;;;;;;22.90;18.00;;;;;;;;;;5053614;28;20449;-71
2021/09/10 07:59:43;;;;;;;23.43;17.30;;;;;;;;;;5048852;28;20487;-72
2021/09/10 08:05:13;;;;;;;24.67;18.50;;;;;;;;;;5038144;28;20527;-71
2021/09/10 08:07:41;;;;;;;23.37;18.50;;;;;;;;;;5047970;28;20539;-69
2021/09/10 08:10:17;;;;;;;23.50;19.73;;;;;;;;;;5038389;28;20562;-69
2021/09/10 08:12:53;;;;;;;27.87;18.83;;;;;;;;;;5036215;28;20458;-69
2021/09/10 08:15:25;;;;;;;26.57;19.57;;;;;;;;;;5046644;28;20750;-69
2021/09/10 08:18:00;;;;;;;27.70;19.77;;;;;;;;;;5048234;28;20472;-70
2021/09/10 08:20:34;;;;;;;27.00;20.93;;;;;;;;;;5042676;28;20882;-68
2021/09/10 08:23:04;;;;;;;26.03;19.77;;;;;;;;;;5049885;28;20485;-69
2021/09/10 08:25:35;;;;;;;26.50;19.40;;;;;;;;;;5042131;28;20796;-72
2021/09/10 08:28:14;;;;;;;29.07;21.00;;;;;;;;;;5042602;28;20481;-70
2021/09/10 08:30:48;;;;;;;28.97;21.10;;;;;;;;;;5055036;28;20453;-70
2021/09/10 08:33:18;;;;;;;29.97;22.00;;;;;;;;;;5051147;28;20560;-70
2021/09/10 08:35:49;;;;;;;35.33;25.50;;;;;;;;;;5059902;28;20532;-70
2021/09/10 08:38:41;;;;;;;39.67;26.00;;;;;;;;;;5059154;28;20779;-70
2021/09/10 08:41:15;;;;;;;33.50;25.00;;;;;;;;;;5064301;28;20528;-70
2021/09/10 08:43:49;;;;;;;28.50;21.10;;;;;;;;;;5059962;28;20576;-70
2021/09/10 08:46:18;;;;;;;25.20;20.87;;;;;;;;;;5062484;28;20451;-70
2021/09/10 08:48:47;;;;;;;27.90;20.77;;;;;;;;;;5066643;28;20467;-72
2021/09/10 08:54:19;;;;;;;31.67;22.83;;;;;;;;;;5061414;28;20510;-70
2021/09/10 08:56:48;;;;;;;34.03;23.20;;;;;;;;;;5060485;28;20854;-70
2021/09/10 08:59:20;;;;;;;27.67;20.43;;;;;;;;;;5058969;28;20451;-71
2021/09/10 09:02:01;;;;;;;30.40;21.57;;;;;;;;;;5061324;28;20467;-72
2021/09/10 09:04:32;;;;;;;35.37;22.10;;;;;;;;;;5064374;28;20488;-72
2021/09/10 09:07:02;;;;;;;28.40;20.03;;;;;;;;;;5055219;28;20496;-72
2021/09/10 09:10:05;;;;;;;28.53;21.47;;;;;;;;;;5067023;28;20544;-72
2021/09/10 09:12:36;;;;;;;28.30;21.07;;;;;;;;;;5007312;28;20455;-72
2021/09/10 09:15:07;;;;;;;35.20;21.80;;;;;;;;;;5049846;28;20884;-73
2021/09/10 09:17:38;;;;;;;38.00;24.13;;;;;;;;;;5069289;28;20445;-72
2021/09/10 09:20:17;;;;;;;31.30;22.00;;;;;;;;;;5063829;28;20433;-73
2021/09/10 09:23:12;;;;;;;36.43;24.43;;;;;;;;;;5068182;28;20869;-72
2021/09/10 09:25:45;;;;;;;33.60;23.90;;;;;;;;;;5066272;28;20452;-72
2021/09/10 09:28:18;;;;;;;31.10;23.40;;;;;;;;;;5065419;28;20461;-72
2021/09/10 09:30:49;;;;;;;36.23;22.83;;;;;;;;;;5066045;28;20450;-72
2021/09/10 09:33:25;;;;;;;30.60;23.70;;;;;;;;;;5059780;28;20456;-72
2021/09/10 09:35:58;;;;;;;31.80;21.43;;;;;;;;;;5068822;28;20445;-73
2021/09/10 09:38:27;;;;;;;29.07;20.63;;;;;;;;;;5067615;28;20458;-71
2021/09/10 09:41:19;;;;;;;26.10;20.40;;;;;;;;;;5065925;28;20441;-71
2021/09/10 09:43:57;;;;;;;31.33;20.40;;;;;;;;;;5062528;28;20909;-71
2021/09/10 09:46:34;;;;;;;26.20;20.40;;;;;;;;;;5063539;28;20449;-72
2021/09/10 09:49:13;;;;;;;31.20;21.67;;;;;;;;;;5068209;28;20464;-72
2021/09/10 09:51:58;;;;;;;26.57;21.10;;;;;;;;;;5066698;28;20465;-72
2021/09/10 09:54:29;;;;;;;24.50;19.67;;;;;;;;;;5046811;28;20475;-72
2021/09/10 09:57:05;;;;;;;22.10;16.63;;;;;;;;;;5061791;28;20449;-71
2021/09/10 09:59:36;;;;;;;25.40;18.10;;;;;;;;;;5045471;28;20462;-73
2021/09/10 10:04:50;;;;;;;21.17;17.27;;;;;;;;;;5033490;28;20557;-73
2021/09/10 10:07:30;;;;;;;21.17;17.07;;;;;;;;;;5052435;28;20466;-73
2021/09/10 10:09:59;;;;;;;20.23;15.37;;;;;;;;;;5060023;28;20457;-73
2021/09/10 10:12:34;;;;;;;17.60;14.97;;;;;;;;;;5054614;28;20504;-72
2021/09/10 10:15:19;;;;;;;15.17;12.70;;;;;;;;;;5045127;28;20908;-73
2021/09/10 10:18:02;;;;;;;16.83;14.73;;;;;;;;;;5050786;28;20818;-71
2021/09/10 10:20:49;;;;;;;17.63;14.60;;;;;;;;;;5062146;28;20477;-72
2021/09/10 10:23:35;;;;;;;14.63;13.13;;;;;;;;;;5043452;28;20487;-72
2021/09/10 10:26:10;;;;;;;18.70;12.50;;;;;;;;;;5037535;28;20462;-71
2021/09/10 10:28:47;;;;;;;13.87;11.57;;;;;;;;;;5053452;28;20884;-72
2021/09/10 10:34:29;;;;;;;16.00;11.83;;;;;;;;;;5038779;28;20516;-74
2021/09/10 10:36:58;;;;;;;14.80;11.37;;;;;;;;;;5037874;28;20470;-72
2021/09/10 10:39:33;;;;;;;20.83;15.20;;;;;;;;;;5039768;28;20474;-73
2021/09/10 10:42:06;;;;;;;13.67;12.20;;;;;;;;;;5050006;28;20547;-73
2021/09/10 10:44:55;;;;;;;20.73;13.20;;;;;;;;;;5053806;28;20548;-71
2021/09/10 10:47:37;;;;;;;16.47;13.17;;;;;;;;;;5048088;28;20471;-72
2021/09/10 10:50:34;;;;;;;21.47;18.70;;;;;;;;;;5040321;28;20461;-72
2021/09/10 10:53:08;;;;;;;22.83;19.40;;;;;;;;;;5043560;28;20489;-71
2021/09/10 10:55:40;;;;;;;17.43;13.80;;;;;;;;;;5057298;28;20457;-69
2021/09/10 10:58:24;;;;;;;19.13;15.70;;;;;;;;;;5048407;28;20462;-71
2021/09/10 11:00:54;;;;;;;21.20;17.00;;;;;;;;;;5040004;28;20469;-70
2021/09/10 11:03:50;;;;;;;23.63;18.47;;;;;;;;;;5040548;28;20461;-71
2021/09/10 11:06:34;;;;;;;22.67;16.60;;;;;;;;;;5041602;28;20454;-70
2021/09/10 11:09:08;;;;;;;21.70;16.50;;;;;;;;;;5056548;28;20458;-72
2021/09/10 11:11:37;;;;;;;24.27;18.40;;;;;;;;;;5045791;28;20454;-72
2021/09/10 11:14:12;;;;;;;24.10;19.23;;;;;;;;;;5044962;28;20481;-71
2021/09/10 11:16:43;;;;;;;23.47;18.13;;;;;;;;;;5042726;28;20550;-71
2021/09/10 11:19:11;;;;;;;26.50;20.30;;;;;;;;;;5044643;28;20863;-71
2021/09/10 11:21:41;;;;;;;24.47;16.73;;;;;;;;;;5038978;28;20477;-71
2021/09/10 11:24:11;;;;;;;24.43;19.40;;;;;;;;;;5046859;28;20486;-71
2021/09/10 11:26:42;;;;;;;19.13;15.53;;;;;;;;;;5045866;28;20454;-70
2021/09/10 11:29:11;;;;;;;19.80;15.60;;;;;;;;;;5040192;28;20486;-70
2021/09/10 11:31:39;;;;;;;18.30;14.47;;;;;;;;;;5044484;28;20474;-70
2021/09/10 11:34:16;;;;;;;18.67;14.03;;;;;;;;;;5047862;28;20544;-71
2021/09/10 11:36:49;;;;;;;17.33;14.63;;;;;;;;;;5056833;28;20454;-70
2021/09/10 11:39:20;;;;;;;19.93;14.73;;;;;;;;;;5048055;28;20550;-70
2021/09/10 11:41:53;;;;;;;14.93;12.93;;;;;;;;;;5053797;28;20454;-71
2021/09/10 11:44:25;;;;;;;18.00;15.30;;;;;;;;;;5045489;28;20486;-71
2021/09/10 11:46:55;;;;;;;19.10;14.57;;;;;;;;;;5050731;28;20753;-71
2021/09/10 11:49:34;;;;;;;14.10;11.80;;;;;;;;;;5043887;28;20768;-72
2021/09/10 11:52:09;;;;;;;15.43;12.40;;;;;;;;;;5050397;28;20468;-72
2021/09/10 11:54:39;;;;;;;16.87;13.40;;;;;;;;;;5038941;28;20472;-71
2021/09/10 11:57:25;;;;;;;21.47;16.07;;;;;;;;;;5036259;28;20518;-71
2021/09/10 11:59:53;;;;;;;17.07;15.27;;;;;;;;;;5032051;28;20462;-71
2021/09/10 12:02:26;;;;;;;17.70;13.60;;;;;;;;;;5041248;28;20481;-71
2021/09/10 12:05:15;;;;;;;18.33;14.87;;;;;;;;;;5048217;28;20587;-73
2021/09/10 12:07:52;;;;;;;17.43;13.13;;;;;;;;;;5042878;28;20473;-72
2021/09/10 12:10:33;;;;;;;15.43;12.97;;;;;;;;;;5048993;28;20532;-72
2021/09/10 12:13:11;;;;;;;15.67;13.50;;;;;;;;;;5037745;28;20564;-72
2021/09/10 12:15:40;;;;;;;17.03;13.67;;;;;;;;;;5054191;28;20496;-71
2021/09/10 12:18:10;;;;;;;13.83;12.07;;;;;;;;;;5040543;28;20442;-71
2021/09/10 12:20:42;;;;;;;15.00;12.07;;;;;;;;;;5036476;28;20532;-71
2021/09/10 12:23:32;;;;;;;14.80;9.60;;;;;;;;;;5034962;28;20790;-71
2021/09/10 12:26:03;;;;;;;12.97;11.67;;;;;;;;;;5044157;28;20571;-71
2021/09/10 12:28:38;;;;;;;16.30;13.17;;;;;;;;;;5050356;28;20495;-71
2021/09/10 12:31:21;;;;;;;12.47;11.17;;;;;;;;;;5038894;28;20470;-72
2021/09/10 12:33:53;;;;;;;14.50;12.10;;;;;;;;;;5039302;28;20462;-71
2021/09/10 12:36:23;;;;;;;12.93;11.30;;;;;;;;;;5037549;28;20497;-71
2021/09/10 12:39:03;;;;;;;12.03;10.63;;;;;;;;;;5034480;28;20458;-72
2021/09/10 12:44:33;;;;;;;12.90;11.20;;;;;;;;;;5057370;28;20584;-72
2021/09/10 12:47:03;;;;;;;13.63;10.30;;;;;;;;;;5052927;28;20457;-71
2021/09/10 12:49:30;;;;;;;12.10;9.53;;;;;;;;;;5044506;28;20446;-71
2021/09/10 12:52:03;;;;;;;10.93;9.83;;;;;;;;;;5040399;28;20461;-71
2021/09/10 12:54:33;;;;;;;9.57;8.43;;;;;;;;;;5053082;28;20512;-72
2021/09/10 12:57:01;;;;;;;9.10;8.07;;;;;;;;;;5064687;28;20535;-72
2021/09/10 12:59:30;;;;;;;12.50;11.07;;;;;;;;;;5052081;28;20496;-73
2021/09/10 13:01:58;;;;;;;12.97;10.00;;;;;;;;;;5051153;28;20456;-71
2021/09/10 13:04:26;;;;;;;12.57;8.83;;;;;;;;;;5051187;28;20449;-71
2021/09/10 13:07:08;;;;;;;9.37;7.53;;;;;;;;;;5051690;28;20461;-71
2021/09/10 13:10:01;;;;;;;7.87;6.40;;;;;;;;;;5047755;28;21038;-72
2021/09/10 13:12:32;;;;;;;9.20;7.40;;;;;;;;;;5044929;28;20489;-71
2021/09/10 13:15:01;;;;;;;13.17;7.67;;;;;;;;;;5037934;28;20582;-73
2021/09/10 13:17:34;;;;;;;8.03;7.23;;;;;;;;;;5039549;28;20528;-73
2021/09/10 13:23:10;;;;;;;8.33;7.10;;;;;;;;;;5039266;28;20483;-72
2021/09/10 13:25:49;;;;;;;7.20;6.50;;;;;;;;;;5051768;28;20489;-72
2021/09/10 13:28:21;;;;;;;7.50;6.10;;;;;;;;;;5045505;28;20827;-73
2021/09/10 13:30:49;;;;;;;7.40;6.10;;;;;;;;;;5044267;28;20989;-73
2021/09/10 13:33:17;;;;;;;7.30;6.47;;;;;;;;;;5045890;28;20461;-72
2021/09/10 13:35:50;;;;;;;6.80;6.10;;;;;;;;;;5054172;28;20465;-72
2021/09/10 13:38:26;;;;;;;8.57;7.33;;;;;;;;;;5052801;28;20765;-72
2021/09/10 13:41:08;;;;;;;6.30;4.90;;;;;;;;;;5058814;28;20438;-72
2021/09/10 13:43:52;;;;;;;6.73;6.03;;;;;;;;;;5061073;28;20517;-71
2021/09/10 13:46:33;;;;;;;6.30;5.10;;;;;;;;;;5055407;28;20886;-72
2021/09/10 13:49:03;;;;;;;6.37;5.67;;;;;;;;;;5062617;28;20462;-72
2021/09/10 13:51:46;;;;;;;5.83;5.23;;;;;;;;;;5058124;28;20816;-72
2021/09/10 13:54:22;;;;;;;8.27;5.33;;;;;;;;;;5060189;28;20456;-73
2021/09/10 13:57:11;;;;;;;8.93;7.33;;;;;;;;;;5059607;28;20468;-72
2021/09/10 14:02:50;;;;;;;7.93;6.57;;;;;;;;;;5052885;28;20493;-72
2021/09/10 14:05:41;;;;;;;7.30;6.20;;;;;;;;;;5063880;28;20776;-72
2021/09/10 14:08:12;;;;;;;8.30;6.80;;;;;;;;;;5059165;28;20482;-72
2021/09/10 14:11:06;;;;;;;7.87;5.70;;;;;;;;;;5065009;28;20484;-72
2021/09/10 14:13:43;;;;;;;8.83;6.30;;;;;;;;;;5050009;28;20461;-71
2021/09/10 14:16:12;;;;;;;5.23;4.70;;;;;;;;;;5049085;28;20445;-71
2021/09/10 14:18:46;;;;;;;7.07;4.23;;;;;;;;;;5057131;28;20478;-73
2021/09/10 14:21:15;;;;;;;6.00;4.40;;;;;;;;;;5052487;28;20456;-73
2021/09/10 14:23:55;;;;;;;5.10;4.47;;;;;;;;;;5064038;28;20470;-73
2021/09/10 14:26:31;;;;;;;5.73;4.80;;;;;;;;;;5048986;28;20819;-72
2021/09/10 14:31:49;;;;;;;6.10;4.53;;;;;;;;;;5044383;28;20466;-72
2021/09/10 14:34:32;;;;;;;6.63;4.87;;;;;;;;;;5051943;28;20457;-72
2021/09/10 14:37:01;;;;;;;6.53;5.07;;;;;;;;;;5045297;28;20813;-72
2021/09/10 14:39:34;;;;;;;7.17;4.43;;;;;;;;;;5057751;28;20740;-72
2021/09/10 14:42:03;;;;;;;6.40;5.30;;;;;;;;;;5052239;28;20453;-73
2021/09/10 14:44:34;;;;;;;7.37;6.67;;;;;;;;;;5052825;28;20464;-72
2021/09/10 14:47:07;;;;;;;6.90;5.50;;;;;;;;;;5051460;28;20491;-72
2021/09/10 14:49:44;;;;;;;7.67;6.87;;;;;;;;;;5050520;28;20993;-73
2021/09/10 14:55:06;;;;;;;10.23;9.03;;;;;;;;;;5044492;28;20798;-73
2021/09/10 14:57:37;;;;;;;6.33;5.53;;;;;;;;;;5057396;28;20465;-72
2021/09/10 15:00:13;;;;;;;5.57;4.97;;;;;;;;;;5062560;28;20446;-72
2021/09/10 15:02:41;;;;;;;5.90;4.90;;;;;;;;;;5059628;28;20464;-71
2021/09/10 15:05:10;;;;;;;4.73;4.30;;;;;;;;;;5051911;28;20511;-72
2021/09/10 15:07:38;;;;;;;6.53;5.63;;;;;;;;;;5034547;28;20485;-71
2021/09/10 15:10:10;;;;;;;5.70;5.20;;;;;;;;;;5035983;28;20461;-71
2021/09/10 15:12:38;;;;;;;6.80;6.20;;;;;;;;;;5043713;28;20457;-71
2021/09/10 15:15:14;;;;;;;7.20;5.20;;;;;;;;;;5041345;28;20555;-71